This is the latest recevied weather packets stored in our database for station/object HB9HJL-11. If no packets are shown the sender has not sent any weather packets the latest 1 day(s).
| Time | Temp. | Humidity | Pressure | Rain* | Wind** | Luminosity | Snow |
|---|---|---|---|---|---|---|---|
| 1778067226 | 16.11° C | 73% | 934 hPa | - | - | - | - |
| 1778066326 | 15.56° C | 75% | 935 hPa | - | - | - | - |
| 1778062725 | 13.89° C | 83% | 939 hPa | - | - | - | - |
| 1778060025 | 12.78° C | 84% | 938 hPa | - | - | - | - |
| 1778059125 | 13.33° C | 85% | 939 hPa | - | - | - | - |
| 1778058224 | 13.33° C | 83% | 938 hPa | - | - | - | - |
| 1778057324 | 13.33° C | 84% | 939 hPa | - | - | - | - |
| 1778056424 | 13.33° C | 88% | 940 hPa | - | - | - | - |
| 1778052822 | 12.22° C | 93% | 941 hPa | - | - | - | - |
| 1778051922 | 11.67° C | 94% | 941 hPa | - | - | - | - |
| 1778051022 | 11.11° C | 96% | 941 hPa | - | - | - | - |
| 1778046521 | 8.33° C | 100% | 944 hPa | - | - | - | - |
| 1778045621 | 7.78° C | 100% | 944 hPa | - | - | - | - |
| 1778044721 | 7.78° C | 100% | 944 hPa | - | - | - | - |
| 1778043821 | 7.22° C | 100% | 943 hPa | - | - | - | - |
| 1778042921 | 6.67° C | 100% | 943 hPa | - | - | - | - |
| 1778042021 | 6.67° C | 100% | 943 hPa | - | - | - | - |
| 1778040220 | 7.22° C | 100% | 944 hPa | - | - | - | - |
| 1778037520 | 7.78° C | 100% | 944 hPa | - | - | - | - |
| 1778036620 | 7.22° C | 100% | 944 hPa | - | - | - | - |
| 1778035720 | 7.78° C | 100% | 945 hPa | - | - | - | - |
| 1778034820 | 7.22° C | 100% | 945 hPa | - | - | - | - |
| 1778033920 | 7.78° C | 100% | 945 hPa | - | - | - | - |
| 1778033020 | 7.78° C | 100% | 945 hPa | - | - | - | - |
| 1778030319 | 7.78° C | 100% | 945 hPa | - | - | - | - |
* Rain since midnight (hover to see other rain measurements)
** Current wind speed in m/s (hover to see current wind gust speed)